createdAt,value
2023-04-02T00:00:06.079Z,3.92
2023-04-02T00:02:51.117Z,3.60
2023-04-02T00:05:50.649Z,3.60
2023-04-02T00:08:22.402Z,3.05
2023-04-02T00:10:51.766Z,3.38
2023-04-02T00:13:22.289Z,3.30
2023-04-02T00:15:50.243Z,3.20
2023-04-02T00:18:17.514Z,3.28
2023-04-02T00:20:46.678Z,3.60
2023-04-02T00:23:14.210Z,3.47
2023-04-02T00:25:45.544Z,3.97
2023-04-02T00:28:14.125Z,4.28
2023-04-02T00:31:06.776Z,4.00
2023-04-02T00:33:33.331Z,4.45
2023-04-02T00:36:00.338Z,3.85
2023-04-02T00:38:31.294Z,3.80
2023-04-02T00:41:02.992Z,3.88
2023-04-02T00:43:32.475Z,4.10
2023-04-02T00:46:01.351Z,3.92
2023-04-02T00:48:48.395Z,4.30
2023-04-02T00:51:22.214Z,4.78
2023-04-02T00:53:50.302Z,4.50
2023-04-02T00:56:26.353Z,5.03
2023-04-02T00:58:54.909Z,5.43
2023-04-02T01:01:26.377Z,5.15
2023-04-02T01:03:58.049Z,5.05
2023-04-02T01:06:29.631Z,5.60
2023-04-02T01:08:59.037Z,5.47
2023-04-02T01:11:42.769Z,5.30
2023-04-02T01:14:15.255Z,5.28
2023-04-02T01:17:00.470Z,5.22
2023-04-02T01:19:30.505Z,5.40
2023-04-02T01:22:08.098Z,5.22
2023-04-02T01:24:37.680Z,5.10
2023-04-02T01:27:08.135Z,5.72
2023-04-02T01:29:37.322Z,5.57
2023-04-02T01:32:14.806Z,5.43
2023-04-02T01:34:44.663Z,5.43
2023-04-02T01:37:16.947Z,5.28
2023-04-02T01:39:49.698Z,5.65
2023-04-02T01:42:29.941Z,5.93
2023-04-02T01:45:01.000Z,6.13
2023-04-02T01:47:29.056Z,5.45
2023-04-02T01:50:04.586Z,5.35
2023-04-02T01:52:41.823Z,5.55
2023-04-02T01:55:13.030Z,5.10
2023-04-02T01:57:44.175Z,5.10
2023-04-02T02:00:15.276Z,5.53
2023-04-02T02:02:46.485Z,5.07
2023-04-02T02:05:14.441Z,5.22
2023-04-02T02:07:43.090Z,5.40
2023-04-02T02:10:15.321Z,5.57
2023-04-02T02:12:43.381Z,5.47
2023-04-02T02:15:15.845Z,5.60
2023-04-02T02:17:42.946Z,5.47
2023-04-02T02:20:11.010Z,5.60
2023-04-02T02:22:40.014Z,5.20
2023-04-02T02:25:10.994Z,6.50
2023-04-02T02:27:43.846Z,5.60
2023-04-02T02:30:16.505Z,6.47
2023-04-02T02:33:04.172Z,6.18
2023-04-02T02:35:52.656Z,5.78
2023-04-02T02:38:35.222Z,6.60
2023-04-02T02:41:17.534Z,6.70
2023-04-02T02:43:58.045Z,7.47
2023-04-02T02:46:25.742Z,7.78
2023-04-02T02:48:55.023Z,7.97
2023-04-02T02:51:25.332Z,6.82
2023-04-02T02:53:54.959Z,7.15
2023-04-02T02:56:22.720Z,7.05
2023-04-02T02:58:51.246Z,6.32
2023-04-02T03:01:22.331Z,5.95
2023-04-02T03:03:53.737Z,6.03
2023-04-02T03:06:21.403Z,4.95
2023-04-02T03:09:17.489Z,4.43
2023-04-02T03:11:44.490Z,4.30
2023-04-02T03:14:23.063Z,4.50
2023-04-02T03:16:52.792Z,5.00
2023-04-02T03:19:19.417Z,4.78
2023-04-02T03:21:54.840Z,5.40
2023-04-02T03:24:39.967Z,4.72
2023-04-02T03:27:16.052Z,4.80
2023-04-02T03:29:49.502Z,5.18
2023-04-02T03:32:17.731Z,6.10
2023-04-02T03:34:48.612Z,5.45
2023-04-02T03:37:22.172Z,6.10
2023-04-02T03:40:09.709Z,6.00
2023-04-02T03:42:42.747Z,6.05
2023-04-02T03:45:12.452Z,6.00
2023-04-02T03:47:42.876Z,7.07
2023-04-02T03:50:23.723Z,7.00
2023-04-02T03:52:52.345Z,8.40
2023-04-02T03:55:23.563Z,8.07
2023-04-02T03:58:09.826Z,8.20
2023-04-02T04:00:50.055Z,8.55
2023-04-02T04:03:29.268Z,8.77
2023-04-02T04:05:58.939Z,8.68
2023-04-02T04:08:30.663Z,9.50
2023-04-02T04:10:58.877Z,9.80
2023-04-02T04:13:31.432Z,9.48
2023-04-02T04:16:00.414Z,10.45
2023-04-02T04:18:35.179Z,10.80
2023-04-02T04:21:15.569Z,9.43
2023-04-02T04:23:50.406Z,9.95
2023-04-02T04:26:42.313Z,9.68
2023-04-02T04:29:27.537Z,9.88
2023-04-02T04:31:55.854Z,9.48
2023-04-02T04:34:51.455Z,9.93
2023-04-02T04:37:29.229Z,10.48
2023-04-02T04:39:57.726Z,10.82
2023-04-02T04:42:27.228Z,9.93
2023-04-02T04:44:53.808Z,10.32
2023-04-02T04:47:24.130Z,9.13
2023-04-02T04:50:03.684Z,9.25
2023-04-02T04:52:36.892Z,8.48
2023-04-02T04:55:21.420Z,9.70
2023-04-02T04:57:49.924Z,8.13
2023-04-02T05:00:19.604Z,8.35
2023-04-02T05:02:48.948Z,8.00
2023-04-02T05:05:18.121Z,6.38
2023-04-02T05:07:49.211Z,6.40
2023-04-02T05:10:28.257Z,6.05
2023-04-02T05:12:59.260Z,6.75
2023-04-02T05:15:29.143Z,6.30
2023-04-02T05:17:57.366Z,6.45
2023-04-02T05:20:31.787Z,6.63
2023-04-02T05:23:09.695Z,6.43
2023-04-02T05:25:37.968Z,6.65
2023-04-02T05:28:18.638Z,6.30
2023-04-02T05:30:49.652Z,6.43
2023-04-02T05:33:22.634Z,6.20
2023-04-02T05:35:56.084Z,6.25
2023-04-02T05:38:25.583Z,6.43
2023-04-02T05:40:58.493Z,6.70
2023-04-02T05:43:36.477Z,7.40
2023-04-02T05:46:07.979Z,8.43
2023-04-02T05:48:39.210Z,8.75
2023-04-02T05:51:09.149Z,8.13
2023-04-02T05:53:37.504Z,7.85
2023-04-02T05:56:07.055Z,7.25
2023-04-02T05:58:38.328Z,6.57
2023-04-02T06:01:17.777Z,6.20
2023-04-02T06:03:51.485Z,5.85
2023-04-02T06:06:21.160Z,5.93
2023-04-02T06:08:53.726Z,5.50
2023-04-02T06:11:27.115Z,6.13
2023-04-02T06:13:53.846Z,6.80
2023-04-02T06:16:25.427Z,6.25
2023-04-02T06:18:52.154Z,6.35
2023-04-02T06:21:20.756Z,7.00
2023-04-02T06:23:54.303Z,6.97
2023-04-02T06:26:32.463Z,6.35
2023-04-02T06:29:17.567Z,5.80
2023-04-02T06:32:03.000Z,5.63
2023-04-02T06:34:32.109Z,5.82
2023-04-02T06:37:27.733Z,6.25
2023-04-02T06:40:14.445Z,6.20
2023-04-02T06:42:42.484Z,6.25
2023-04-02T06:45:43.594Z,6.05
2023-04-02T06:48:29.330Z,5.95
2023-04-02T06:51:07.406Z,6.05
2023-04-02T06:53:37.034Z,6.07
2023-04-02T06:56:20.252Z,4.85
2023-04-02T06:58:47.074Z,4.65
2023-04-02T07:01:17.916Z,4.53
2023-04-02T07:03:44.792Z,4.65
2023-04-02T07:06:19.311Z,3.70
2023-04-02T07:08:48.269Z,4.28
2023-04-02T07:11:21.156Z,3.45
2023-04-02T07:13:50.485Z,3.88
2023-04-02T07:16:19.163Z,3.63
2023-04-02T07:18:46.328Z,3.42
2023-04-02T07:21:13.282Z,4.15
2023-04-02T07:23:40.440Z,3.90
2023-04-02T07:26:07.752Z,3.80
2023-04-02T07:28:34.863Z,4.20
2023-04-02T07:31:03.922Z,4.82
2023-04-02T07:33:30.899Z,5.82
2023-04-02T07:35:58.297Z,6.82
2023-04-02T07:38:24.861Z,7.65
2023-04-02T07:40:51.649Z,7.97
2023-04-02T07:43:18.203Z,8.00
2023-04-02T07:45:44.778Z,8.63
2023-04-02T07:48:13.778Z,8.38
2023-04-02T07:50:40.721Z,7.72
2023-04-02T07:53:08.783Z,8.32
2023-04-02T07:55:35.801Z,8.27
2023-04-02T07:58:03.083Z,7.72
2023-04-02T08:00:30.036Z,7.65
2023-04-02T08:02:56.709Z,7.57
2023-04-02T08:05:23.424Z,8.10
2023-04-02T08:07:54.463Z,9.35
2023-04-02T08:10:21.248Z,8.60
2023-04-02T08:12:47.854Z,9.30
2023-04-02T08:15:15.472Z,8.00
2023-04-02T08:17:43.481Z,10.13
2023-04-02T08:20:21.217Z,9.07
2023-04-02T08:22:48.623Z,8.20
2023-04-02T08:25:15.472Z,7.95
2023-04-02T08:27:42.441Z,7.90
2023-04-02T08:30:09.753Z,7.10
2023-04-02T08:32:36.398Z,7.15
2023-04-02T08:35:03.113Z,7.43
2023-04-02T08:37:29.675Z,6.68
2023-04-02T08:39:56.214Z,6.07
2023-04-02T08:42:23.073Z,4.90
2023-04-02T08:44:49.500Z,4.70
2023-04-02T08:47:19.086Z,4.40
2023-04-02T08:49:57.734Z,4.15
2023-04-02T08:52:30.431Z,4.22
2023-04-02T08:54:58.200Z,3.92
2023-04-02T08:57:41.776Z,4.07
2023-04-02T09:00:20.391Z,3.97
2023-04-02T09:02:49.422Z,3.90
2023-04-02T09:05:28.539Z,4.10
2023-04-02T09:07:56.803Z,3.97
2023-04-02T09:10:25.408Z,3.95
2023-04-02T09:12:52.779Z,4.13
2023-04-02T09:15:25.680Z,4.15
2023-04-02T09:17:59.029Z,4.05
2023-04-02T09:20:27.535Z,3.92
2023-04-02T09:22:55.451Z,3.42
2023-04-02T09:25:25.746Z,3.70
2023-04-02T09:27:53.579Z,3.70
2023-04-02T09:30:30.460Z,3.78
2023-04-02T09:32:57.175Z,3.70
2023-04-02T09:35:27.063Z,2.88
2023-04-02T09:38:09.110Z,3.38
2023-04-02T09:40:56.160Z,3.22
2023-04-02T09:43:24.243Z,2.80
2023-04-02T09:46:04.898Z,3.20
2023-04-02T09:48:41.811Z,3.08
2023-04-02T09:51:08.530Z,3.03
2023-04-02T09:53:42.878Z,3.10
2023-04-02T09:56:11.321Z,3.50
2023-04-02T09:58:38.178Z,3.33
2023-04-02T10:01:05.222Z,3.30
2023-04-02T10:03:33.221Z,3.80
2023-04-02T10:06:05.576Z,3.38
2023-04-02T10:08:32.450Z,3.22
2023-04-02T10:11:00.693Z,3.13
2023-04-02T10:13:33.733Z,2.92
2023-04-02T10:16:09.577Z,3.03
2023-04-02T10:18:42.387Z,2.70
2023-04-02T10:21:11.135Z,2.33
2023-04-02T10:23:38.321Z,2.13
2023-04-02T10:26:17.121Z,2.30
2023-04-02T10:28:43.717Z,2.47
2023-04-02T10:31:10.229Z,2.30
2023-04-02T10:33:38.098Z,3.88
2023-04-02T10:36:19.781Z,2.15
2023-04-02T10:38:55.640Z,1.90
2023-04-02T10:41:31.327Z,3.15
2023-04-02T10:44:19.529Z,1.83
2023-04-02T10:46:59.323Z,2.08
2023-04-02T10:49:42.706Z,2.25
2023-04-02T10:52:09.681Z,2.30
2023-04-02T10:55:11.558Z,2.20
2023-04-02T10:57:40.549Z,2.10
2023-04-02T11:00:16.952Z,2.38
2023-04-02T11:02:46.849Z,2.15
2023-04-02T11:05:17.026Z,2.25
2023-04-02T11:07:52.284Z,2.28
2023-04-02T11:10:20.345Z,2.50
2023-04-02T11:12:50.592Z,2.42
2023-04-02T11:15:17.947Z,2.70
2023-04-02T11:17:45.607Z,2.40
2023-04-02T11:20:30.745Z,2.40
2023-04-02T11:23:11.838Z,2.58
2023-04-02T11:25:38.438Z,2.25
2023-04-02T11:28:13.887Z,2.55
2023-04-02T11:33:34.122Z,2.30
2023-04-02T11:36:03.796Z,2.67
2023-04-02T11:38:52.368Z,2.80
2023-04-02T11:41:45.622Z,3.00
2023-04-02T11:44:22.351Z,2.38
2023-04-02T11:46:49.054Z,2.95
2023-04-02T11:49:36.069Z,3.00
2023-04-02T11:52:11.574Z,2.80
2023-04-02T11:54:39.602Z,2.45
2023-04-02T11:57:16.463Z,2.47
2023-04-02T11:59:50.795Z,2.53
2023-04-02T12:02:35.077Z,2.47
2023-04-02T12:05:28.043Z,2.15
2023-04-02T12:07:57.986Z,2.30
2023-04-02T12:10:29.671Z,2.33
2023-04-02T12:12:56.296Z,2.67
2023-04-02T12:15:40.332Z,2.35
2023-04-02T12:18:14.348Z,2.47
2023-04-02T12:20:42.739Z,2.30
2023-04-02T12:23:21.377Z,2.45
2023-04-02T12:25:54.311Z,2.35
2023-04-02T12:28:22.606Z,2.55
2023-04-02T12:30:50.122Z,2.78
2023-04-02T12:33:39.855Z,2.30
2023-04-02T12:36:10.045Z,2.60
2023-04-02T12:38:43.960Z,2.05
2023-04-02T12:41:31.018Z,2.28
2023-04-02T12:44:11.986Z,2.45
2023-04-02T12:46:39.072Z,2.47
2023-04-02T12:49:06.865Z,2.70
2023-04-02T12:51:36.123Z,2.63
2023-04-02T12:54:02.883Z,2.17
2023-04-02T12:56:29.529Z,2.20
2023-04-02T12:59:00.064Z,2.60
2023-04-02T13:01:28.576Z,2.40
2023-04-02T13:04:04.371Z,2.90
2023-04-02T13:06:32.205Z,2.75
2023-04-02T13:09:00.028Z,2.25
2023-04-02T13:11:35.800Z,2.70
2023-04-02T13:14:03.351Z,2.50
2023-04-02T13:16:34.094Z,2.38
2023-04-02T13:19:11.533Z,2.53
2023-04-02T13:21:38.567Z,2.25
2023-04-02T13:24:05.213Z,2.28
2023-04-02T13:26:31.836Z,2.25
2023-04-02T13:28:58.720Z,2.00
2023-04-02T13:31:25.610Z,1.83
2023-04-02T13:33:52.685Z,2.10
2023-04-02T13:36:19.216Z,1.92
2023-04-02T13:38:46.180Z,2.33
2023-04-02T13:41:18.739Z,1.75
2023-04-02T13:43:45.396Z,1.90
2023-04-02T13:46:17.605Z,1.95
2023-04-02T13:48:46.947Z,1.95
2023-04-02T13:51:16.091Z,2.00
2023-04-02T13:53:42.692Z,1.83
2023-04-02T13:56:09.424Z,2.13
2023-04-02T13:58:36.225Z,1.83
2023-04-02T14:01:02.881Z,2.20
2023-04-02T14:03:29.645Z,1.98
2023-04-02T14:06:08.341Z,1.90
2023-04-02T14:08:36.426Z,2.13
2023-04-02T14:11:21.834Z,1.80
2023-04-02T14:14:10.034Z,2.00
2023-04-02T14:16:36.705Z,1.80
2023-04-02T14:19:13.675Z,1.80
2023-04-02T14:21:42.989Z,2.00
2023-04-02T14:24:27.902Z,2.10
2023-04-02T14:27:06.630Z,2.65
2023-04-02T14:29:42.000Z,2.25
2023-04-02T14:34:51.621Z,1.98
2023-04-02T14:37:20.862Z,2.15
2023-04-02T14:39:58.228Z,1.83
2023-04-02T14:42:24.732Z,1.60
2023-04-02T14:45:09.971Z,1.83
2023-04-02T14:47:43.066Z,1.90
2023-04-02T14:50:17.329Z,1.70
2023-04-02T14:52:45.612Z,1.92
2023-04-02T14:55:14.631Z,1.85
2023-04-02T14:57:44.887Z,1.80
2023-04-02T15:00:24.148Z,1.70
2023-04-02T15:02:57.572Z,1.23
2023-04-02T15:05:42.417Z,1.88
2023-04-02T15:08:18.848Z,1.95
2023-04-02T15:10:48.057Z,2.05
2023-04-02T15:13:20.255Z,1.75
2023-04-02T15:15:54.299Z,1.73
2023-04-02T15:18:20.896Z,1.80
2023-04-02T15:21:05.774Z,1.88
2023-04-02T15:23:41.629Z,1.80
2023-04-02T15:26:27.065Z,1.63
2023-04-02T15:29:01.225Z,1.75
2023-04-02T15:31:28.571Z,1.70
2023-04-02T15:34:02.446Z,1.73
2023-04-02T15:36:32.942Z,2.03
2023-04-02T15:39:05.440Z,1.80
2023-04-02T15:41:35.623Z,1.83
2023-04-02T15:44:15.369Z,1.60
2023-04-02T15:46:48.245Z,1.70
2023-04-02T15:49:14.780Z,1.88
2023-04-02T15:51:41.463Z,1.60
2023-04-02T15:54:11.618Z,1.80
2023-04-02T15:56:52.555Z,1.45
2023-04-02T15:59:25.561Z,1.77
2023-04-02T16:01:55.362Z,1.73
2023-04-02T16:04:25.060Z,1.58
2023-04-02T16:06:53.192Z,1.35
2023-04-02T16:09:27.555Z,1.70
2023-04-02T16:12:11.218Z,1.75
2023-04-02T16:14:39.454Z,1.65
2023-04-02T16:17:21.577Z,1.80
2023-04-02T16:19:53.199Z,1.90
2023-04-02T16:22:22.954Z,1.90
2023-04-02T16:24:53.292Z,1.85
2023-04-02T16:27:20.170Z,1.80
2023-04-02T16:29:55.394Z,1.95
2023-04-02T16:32:26.811Z,1.70
2023-04-02T16:34:53.711Z,1.50
2023-04-02T16:37:33.093Z,1.95
2023-04-02T16:40:05.595Z,1.63
2023-04-02T16:42:43.267Z,1.50
2023-04-02T16:45:23.860Z,1.65
2023-04-02T16:47:56.455Z,1.98
2023-04-02T16:50:32.226Z,1.45
2023-04-02T16:53:15.691Z,1.90
2023-04-02T16:56:10.382Z,1.95
2023-04-02T16:58:40.633Z,1.70
2023-04-02T17:01:30.313Z,1.67
2023-04-02T17:04:11.846Z,1.38
2023-04-02T17:06:55.178Z,1.55
2023-04-02T17:09:26.698Z,1.70
2023-04-02T17:11:56.886Z,1.83
2023-04-02T17:14:32.137Z,1.60
2023-04-02T17:17:02.936Z,1.60
2023-04-02T17:19:31.220Z,2.20
2023-04-02T17:21:59.446Z,1.60
2023-04-02T17:24:25.954Z,2.95
2023-04-02T17:27:08.073Z,1.85
2023-04-02T17:29:38.805Z,2.63
2023-04-02T17:32:11.746Z,3.00
2023-04-02T17:34:38.535Z,3.20
2023-04-02T17:37:17.918Z,3.47
2023-04-02T17:39:56.907Z,3.05
2023-04-02T17:42:32.348Z,3.00
2023-04-02T17:47:30.113Z,3.28
2023-04-02T17:50:12.924Z,2.45
2023-04-02T17:52:56.666Z,1.85
2023-04-02T17:55:26.211Z,3.78
2023-04-02T17:58:01.753Z,8.32
2023-04-02T18:00:47.007Z,5.40
2023-04-02T18:03:32.348Z,3.65
2023-04-02T18:06:00.524Z,4.07
2023-04-02T18:08:33.675Z,3.58
2023-04-02T18:11:03.084Z,5.43
2023-04-02T18:13:35.757Z,6.10
2023-04-02T18:16:20.625Z,5.63
2023-04-02T18:18:56.637Z,2.85
2023-04-02T18:21:23.129Z,2.35
2023-04-02T18:23:54.208Z,5.57
2023-04-02T18:26:32.441Z,3.00
2023-04-02T18:29:17.895Z,2.13
2023-04-02T18:31:46.298Z,3.10
2023-04-02T18:34:30.516Z,2.60
2023-04-02T18:37:02.880Z,2.17
2023-04-02T18:39:38.545Z,2.45
2023-04-02T18:42:08.904Z,2.75
2023-04-02T18:44:42.454Z,2.40
2023-04-02T18:47:10.099Z,2.55
2023-04-02T18:49:47.143Z,2.47
2023-04-02T18:52:17.820Z,2.30
2023-04-02T18:54:51.364Z,2.60
2023-04-02T18:57:23.163Z,2.88
2023-04-02T19:00:06.148Z,2.10
2023-04-02T19:02:41.952Z,4.07
2023-04-02T19:05:16.346Z,2.70
2023-04-02T19:10:21.499Z,2.65
2023-04-02T19:12:48.339Z,2.15
2023-04-02T19:15:16.208Z,2.60
2023-04-02T19:17:46.238Z,2.60
2023-04-02T19:20:30.498Z,2.22
2023-04-02T19:22:57.284Z,3.10
2023-04-02T19:25:29.543Z,2.80
2023-04-02T19:28:07.871Z,2.70
2023-04-02T19:30:56.085Z,2.70
2023-04-02T19:33:33.541Z,2.28
2023-04-02T19:36:18.361Z,2.30
2023-04-02T19:38:45.001Z,2.55
2023-04-02T19:41:14.243Z,2.83
2023-04-02T19:43:40.980Z,4.57
2023-04-02T19:46:07.866Z,2.42
2023-04-02T19:48:41.281Z,2.72
2023-04-02T19:51:08.118Z,2.85
2023-04-02T19:53:37.525Z,3.92
2023-04-02T19:56:04.142Z,2.42
2023-04-02T19:58:32.219Z,1.90
2023-04-02T20:00:58.861Z,2.65
2023-04-02T20:03:25.736Z,2.50
2023-04-02T20:05:52.553Z,2.90
2023-04-02T20:08:19.035Z,2.50
2023-04-02T20:10:45.766Z,2.10
2023-04-02T20:13:13.246Z,2.17
2023-04-02T20:15:40.502Z,2.20
2023-04-02T20:18:07.480Z,2.30
2023-04-02T20:20:34.293Z,1.92
2023-04-02T20:23:01.089Z,2.25
2023-04-02T20:25:27.764Z,2.42
2023-04-02T20:27:54.268Z,2.40
2023-04-02T20:30:20.942Z,2.85
2023-04-02T20:32:48.005Z,2.30
2023-04-02T20:35:14.556Z,2.20
2023-04-02T20:37:41.947Z,2.53
2023-04-02T20:40:09.999Z,2.95
2023-04-02T20:42:36.542Z,2.40
2023-04-02T20:45:05.120Z,2.30
2023-04-02T20:47:31.817Z,2.13
2023-04-02T20:49:58.369Z,2.08
2023-04-02T20:52:24.891Z,2.03
2023-04-02T20:54:51.715Z,2.17
2023-04-02T20:57:21.648Z,2.05
2023-04-02T20:59:48.622Z,2.25
2023-04-02T21:02:15.420Z,2.00
2023-04-02T21:04:42.468Z,2.55
2023-04-02T21:07:08.991Z,2.13
2023-04-02T21:09:35.735Z,2.13
2023-04-02T21:12:02.431Z,2.40
2023-04-02T21:14:31.565Z,2.20
2023-04-02T21:16:58.288Z,2.40
2023-04-02T21:19:24.925Z,2.60
2023-04-02T21:21:54.399Z,2.35
2023-04-02T21:24:21.015Z,2.53
2023-04-02T21:26:47.602Z,3.20
2023-04-02T21:29:14.212Z,2.13
2023-04-02T21:31:41.197Z,2.72
2023-04-02T21:34:09.719Z,2.95
2023-04-02T21:36:37.524Z,3.05
2023-04-02T21:39:05.262Z,2.60
2023-04-02T21:41:33.393Z,2.58
2023-04-02T21:44:00.815Z,2.35
2023-04-02T21:46:28.999Z,1.80
2023-04-02T21:48:56.720Z,1.90
2023-04-02T21:51:24.975Z,2.10
2023-04-02T21:53:54.010Z,1.80
2023-04-02T21:56:22.734Z,1.70
2023-04-02T21:58:49.883Z,1.85
2023-04-02T22:01:26.854Z,1.58
2023-04-02T22:03:55.033Z,1.70
2023-04-02T22:06:22.216Z,1.45
2023-04-02T22:08:53.258Z,1.67
2023-04-02T22:11:21.418Z,1.70
2023-04-02T22:13:48.408Z,1.63
2023-04-02T22:16:16.699Z,1.40
2023-04-02T22:18:43.887Z,1.35
2023-04-02T22:21:11.474Z,1.58
2023-04-02T22:23:38.678Z,1.63
2023-04-02T22:26:06.314Z,1.40
2023-04-02T22:28:33.717Z,1.35
2023-04-02T22:31:11.587Z,1.55
2023-04-02T22:33:38.605Z,1.83
2023-04-02T22:36:05.392Z,1.63
2023-04-02T22:38:32.335Z,1.63
2023-04-02T22:41:09.364Z,1.40
2023-04-02T22:43:36.548Z,1.25
2023-04-02T22:46:06.608Z,1.45
2023-04-02T22:48:33.450Z,1.10
2023-04-02T22:51:00.048Z,1.40
2023-04-02T22:53:27.275Z,1.48
2023-04-02T22:55:54.233Z,1.77
2023-04-02T22:58:21.083Z,1.40
2023-04-02T23:00:48.039Z,1.30
2023-04-02T23:03:14.525Z,1.48
2023-04-02T23:05:42.557Z,1.77
2023-04-02T23:08:09.559Z,1.40
2023-04-02T23:10:36.605Z,1.50
2023-04-02T23:13:03.635Z,1.33
2023-04-02T23:15:30.545Z,1.60
2023-04-02T23:17:57.064Z,1.40
2023-04-02T23:20:23.777Z,1.48
2023-04-02T23:22:50.392Z,1.20
2023-04-02T23:25:17.003Z,1.38
2023-04-02T23:27:43.500Z,1.38
2023-04-02T23:30:10.069Z,1.92
2023-04-02T23:32:36.734Z,1.40
2023-04-02T23:35:03.396Z,1.48
2023-04-02T23:37:29.927Z,1.73
2023-04-02T23:39:56.572Z,1.50
2023-04-02T23:42:23.145Z,1.55
2023-04-02T23:44:49.645Z,1.00
2023-04-02T23:47:16.310Z,1.60
2023-04-02T23:49:47.770Z,1.77
2023-04-02T23:52:15.000Z,1.50
2023-04-02T23:54:41.618Z,1.60
2023-04-02T23:57:08.156Z,1.27
2023-04-02T23:59:34.742Z,1.65
